sensor_id;sensor_type;location;lat;lon;timestamp;temperature;humidity
7445;DHT22;3764;48.126;11.594;2024-03-23T00:54:39;12.20;99.90
7445;DHT22;3764;48.126;11.594;2024-03-23T00:57:06;12.20;99.90
7445;DHT22;3764;48.126;11.594;2024-03-23T00:59:33;12.20;99.90
7445;DHT22;3764;48.126;11.594;2024-03-23T01:02:00;12.30;99.90
7445;DHT22;3764;48.126;11.594;2024-03-23T01:04:26;12.40;99.90
7445;DHT22;3764;48.126;11.594;2024-03-23T01:06:54;12.50;99.90
7445;DHT22;3764;48.126;11.594;2024-03-23T01:09:20;12.50;99.90
7445;DHT22;3764;48.126;11.594;2024-03-23T01:11:50;12.60;99.90
7445;DHT22;3764;48.126;11.594;2024-03-23T01:14:16;12.60;99.90
7445;DHT22;3764;48.126;11.594;2024-03-23T01:16:43;12.70;99.90
7445;DHT22;3764;48.126;11.594;2024-03-23T01:19:10;12.70;99.90
7445;DHT22;3764;48.126;11.594;2024-03-23T01:21:37;12.80;99.90
7445;DHT22;3764;48.126;11.594;2024-03-23T01:24:04;12.70;99.90
7445;DHT22;3764;48.126;11.594;2024-03-23T01:26:31;12.80;99.90
7445;DHT22;3764;48.126;11.594;2024-03-23T01:28:59;12.80;99.90
7445;DHT22;3764;48.126;11.594;2024-03-23T01:31:26;12.80;99.90
7445;DHT22;3764;48.126;11.594;2024-03-23T01:33:52;12.80;99.90
7445;DHT22;3764;48.126;11.594;2024-03-23T01:36:20;12.80;99.90
7445;DHT22;3764;48.126;11.594;2024-03-23T01:38:46;12.80;99.90
7445;DHT22;3764;48.126;11.594;2024-03-23T01:41:14;12.70;99.90
7445;DHT22;3764;48.126;11.594;2024-03-23T01:43:40;12.70;99.90
7445;DHT22;3764;48.126;11.594;2024-03-23T01:46:09;12.70;99.90
7445;DHT22;3764;48.126;11.594;2024-03-23T01:48:36;12.70;99.90
7445;DHT22;3764;48.126;11.594;2024-03-23T01:51:04;12.60;99.90
7445;DHT22;3764;48.126;11.594;2024-03-23T01:53:30;12.60;99.90
7445;DHT22;3764;48.126;11.594;2024-03-23T01:55:58;12.50;99.90
7445;DHT22;3764;48.126;11.594;2024-03-23T01:58:25;12.50;99.90
7445;DHT22;3764;48.126;11.594;2024-03-23T02:00:52;12.50;99.90
7445;DHT22;3764;48.126;11.594;2024-03-23T02:03:27;12.50;99.90
7445;DHT22;3764;48.126;11.594;2024-03-23T02:05:54;12.50;99.90
7445;DHT22;3764;48.126;11.594;2024-03-23T02:08:23;12.50;99.90
7445;DHT22;3764;48.126;11.594;2024-03-23T02:10:50;12.50;99.90
7445;DHT22;3764;48.126;11.594;2024-03-23T02:13:18;12.50;99.90
7445;DHT22;3764;48.126;11.594;2024-03-23T02:15:45;12.40;99.90
7445;DHT22;3764;48.126;11.594;2024-03-23T02:18:12;12.40;99.90
7445;DHT22;3764;48.126;11.594;2024-03-23T02:20:41;12.40;99.90
7445;DHT22;3764;48.126;11.594;2024-03-23T02:23:14;12.40;99.90
7445;DHT22;3764;48.126;11.594;2024-03-23T02:25:42;12.40;99.90
7445;DHT22;3764;48.126;11.594;2024-03-23T02:28:08;12.40;99.90
7445;DHT22;3764;48.126;11.594;2024-03-23T02:30:36;12.40;99.90
7445;DHT22;3764;48.126;11.594;2024-03-23T02:33:02;12.30;99.90
7445;DHT22;3764;48.126;11.594;2024-03-23T02:35:30;12.30;99.90
7445;DHT22;3764;48.126;11.594;2024-03-23T02:37:56;12.30;99.90
7445;DHT22;3764;48.126;11.594;2024-03-23T02:40:25;12.20;99.90
7445;DHT22;3764;48.126;11.594;2024-03-23T02:42:52;12.20;99.90
7445;DHT22;3764;48.126;11.594;2024-03-23T02:45:19;12.20;99.90
7445;DHT22;3764;48.126;11.594;2024-03-23T02:47:46;12.10;99.90
7445;DHT22;3764;48.126;11.594;2024-03-23T02:50:18;12.10;99.90
7445;DHT22;3764;48.126;11.594;2024-03-23T02:52:44;12.00;99.90
7445;DHT22;3764;48.126;11.594;2024-03-23T02:55:12;12.00;99.90
7445;DHT22;3764;48.126;11.594;2024-03-23T02:57:39;12.00;99.90
7445;DHT22;3764;48.126;11.594;2024-03-23T03:00:07;12.00;99.90
7445;DHT22;3764;48.126;11.594;2024-03-23T03:02:35;11.90;99.90
7445;DHT22;3764;48.126;11.594;2024-03-23T03:05:03;11.90;99.90
7445;DHT22;3764;48.126;11.594;2024-03-23T03:07:30;11.80;99.90
7445;DHT22;3764;48.126;11.594;2024-03-23T03:09:58;11.80;99.90
7445;DHT22;3764;48.126;11.594;2024-03-23T03:12:24;11.80;99.90
7445;DHT22;3764;48.126;11.594;2024-03-23T03:14:53;11.80;99.90
7445;DHT22;3764;48.126;11.594;2024-03-23T03:17:20;11.80;99.90
7445;DHT22;3764;48.126;11.594;2024-03-23T03:19:47;11.70;99.90
7445;DHT22;3764;48.126;11.594;2024-03-23T03:22:13;11.70;99.90
7445;DHT22;3764;48.126;11.594;2024-03-23T03:24:41;11.70;99.90
7445;DHT22;3764;48.126;11.594;2024-03-23T03:27:08;11.60;99.90
7445;DHT22;3764;48.126;11.594;2024-03-23T03:29:35;11.60;99.90
7445;DHT22;3764;48.126;11.594;2024-03-23T03:32:04;11.50;99.90
7445;DHT22;3764;48.126;11.594;2024-03-23T03:34:31;11.50;99.90
7445;DHT22;3764;48.126;11.594;2024-03-23T03:36:58;11.40;99.90
7445;DHT22;3764;48.126;11.594;2024-03-23T03:39:25;11.30;99.90
7445;DHT22;3764;48.126;11.594;2024-03-23T03:41:52;11.30;99.90
7445;DHT22;3764;48.126;11.594;2024-03-23T03:44:20;11.20;99.90
7445;DHT22;3764;48.126;11.594;2024-03-23T03:46:46;11.20;99.90
7445;DHT22;3764;48.126;11.594;2024-03-23T03:49:15;11.10;99.90
7445;DHT22;3764;48.126;11.594;2024-03-23T03:51:41;11.10;99.90
7445;DHT22;3764;48.126;11.594;2024-03-23T03:54:08;11.00;99.90
7445;DHT22;3764;48.126;11.594;2024-03-23T03:56:35;11.00;99.90
7445;DHT22;3764;48.126;11.594;2024-03-23T03:59:02;11.00;99.90
7445;DHT22;3764;48.126;11.594;2024-03-23T04:01:28;10.90;99.90
7445;DHT22;3764;48.126;11.594;2024-03-23T04:03:56;10.90;99.90
7445;DHT22;3764;48.126;11.594;2024-03-23T04:06:24;10.90;99.90
7445;DHT22;3764;48.126;11.594;2024-03-23T04:08:51;11.00;99.90
7445;DHT22;3764;48.126;11.594;2024-03-23T04:11:17;11.00;99.90
7445;DHT22;3764;48.126;11.594;2024-03-23T04:13:45;11.00;99.90
7445;DHT22;3764;48.126;11.594;2024-03-23T04:16:11;11.10;99.90
7445;DHT22;3764;48.126;11.594;2024-03-23T04:18:38;11.10;99.90
7445;DHT22;3764;48.126;11.594;2024-03-23T04:21:05;11.20;99.90
7445;DHT22;3764;48.126;11.594;2024-03-23T04:23:34;11.20;99.90
7445;DHT22;3764;48.126;11.594;2024-03-23T04:26:03;11.30;99.90
7445;DHT22;3764;48.126;11.594;2024-03-23T04:28:31;11.40;99.90
7445;DHT22;3764;48.126;11.594;2024-03-23T04:30:57;11.40;99.90
7445;DHT22;3764;48.126;11.594;2024-03-23T04:33:24;11.50;99.90
7445;DHT22;3764;48.126;11.594;2024-03-23T04:35:51;11.60;99.90
7445;DHT22;3764;48.126;11.594;2024-03-23T04:38:18;11.60;99.90
7445;DHT22;3764;48.126;11.594;2024-03-23T04:40:54;11.70;99.90
7445;DHT22;3764;48.126;11.594;2024-03-23T04:43:21;11.70;99.90
7445;DHT22;3764;48.126;11.594;2024-03-23T04:45:49;11.80;99.90
7445;DHT22;3764;48.126;11.594;2024-03-23T04:48:17;11.80;99.90
7445;DHT22;3764;48.126;11.594;2024-03-23T04:50:45;11.90;99.90
7445;DHT22;3764;48.126;11.594;2024-03-23T04:53:11;11.90;99.90
7445;DHT22;3764;48.126;11.594;2024-03-23T04:55:38;11.80;99.90
7445;DHT22;3764;48.126;11.594;2024-03-23T04:58:06;11.70;99.90
7445;DHT22;3764;48.126;11.594;2024-03-23T05:00:33;11.60;99.90
7445;DHT22;3764;48.126;11.594;2024-03-23T05:03:00;11.60;99.90
7445;DHT22;3764;48.126;11.594;2024-03-23T05:05:27;11.50;99.90
7445;DHT22;3764;48.126;11.594;2024-03-23T05:07:53;11.40;99.90
7445;DHT22;3764;48.126;11.594;2024-03-23T05:10:21;11.30;99.90
7445;DHT22;3764;48.126;11.594;2024-03-23T05:12:47;11.20;99.90
7445;DHT22;3764;48.126;11.594;2024-03-23T05:15:16;11.10;99.90
7445;DHT22;3764;48.126;11.594;2024-03-23T05:17:42;11.10;99.90
7445;DHT22;3764;48.126;11.594;2024-03-23T05:20:10;11.00;99.90
7445;DHT22;3764;48.126;11.594;2024-03-23T05:22:38;10.90;99.90
7445;DHT22;3764;48.126;11.594;2024-03-23T05:25:06;10.80;99.90
7445;DHT22;3764;48.126;11.594;2024-03-23T05:27:33;10.80;99.90
7445;DHT22;3764;48.126;11.594;2024-03-23T05:30:00;10.70;99.90
7445;DHT22;3764;48.126;11.594;2024-03-23T05:32:28;10.70;99.90
7445;DHT22;3764;48.126;11.594;2024-03-23T05:34:56;10.60;99.90
7445;DHT22;3764;48.126;11.594;2024-03-23T05:37:23;10.50;99.90
7445;DHT22;3764;48.126;11.594;2024-03-23T05:39:50;10.50;99.90
7445;DHT22;3764;48.126;11.594;2024-03-23T05:42:16;10.40;99.90
7445;DHT22;3764;48.126;11.594;2024-03-23T05:44:44;10.40;99.90
7445;DHT22;3764;48.126;11.594;2024-03-23T05:47:11;10.40;99.90
7445;DHT22;3764;48.126;11.594;2024-03-23T05:49:42;10.40;99.90
7445;DHT22;3764;48.126;11.594;2024-03-23T05:52:08;10.40;99.90
7445;DHT22;3764;48.126;11.594;2024-03-23T05:54:36;10.40;99.90
7445;DHT22;3764;48.126;11.594;2024-03-23T05:57:02;10.40;99.90
7445;DHT22;3764;48.126;11.594;2024-03-23T05:59:30;10.40;99.90
7445;DHT22;3764;48.126;11.594;2024-03-23T06:01:57;10.40;99.90
7445;DHT22;3764;48.126;11.594;2024-03-23T06:04:24;10.40;99.90
7445;DHT22;3764;48.126;11.594;2024-03-23T06:06:52;10.40;99.90
7445;DHT22;3764;48.126;11.594;2024-03-23T06:09:19;10.40;99.90
7445;DHT22;3764;48.126;11.594;2024-03-23T06:11:46;10.50;99.90
7445;DHT22;3764;48.126;11.594;2024-03-23T06:14:13;10.50;99.90
7445;DHT22;3764;48.126;11.594;2024-03-23T06:16:40;10.50;99.90
7445;DHT22;3764;48.126;11.594;2024-03-23T06:19:07;10.60;99.90
7445;DHT22;3764;48.126;11.594;2024-03-23T06:21:33;10.70;99.90
7445;DHT22;3764;48.126;11.594;2024-03-23T06:24:03;10.70;99.90
7445;DHT22;3764;48.126;11.594;2024-03-23T06:26:29;10.80;99.90
7445;DHT22;3764;48.126;11.594;2024-03-23T06:28:56;10.80;99.90
7445;DHT22;3764;48.126;11.594;2024-03-23T06:31:23;10.80;99.90
7445;DHT22;3764;48.126;11.594;2024-03-23T06:33:50;10.90;99.90
7445;DHT22;3764;48.126;11.594;2024-03-23T06:36:16;10.90;99.90
7445;DHT22;3764;48.126;11.594;2024-03-23T06:38:45;10.90;99.90
7445;DHT22;3764;48.126;11.594;2024-03-23T06:41:13;11.00;99.90
7445;DHT22;3764;48.126;11.594;2024-03-23T06:43:40;11.00;99.90
7445;DHT22;3764;48.126;11.594;2024-03-23T06:46:07;11.10;99.90
7445;DHT22;3764;48.126;11.594;2024-03-23T06:48:34;11.20;99.90
7445;DHT22;3764;48.126;11.594;2024-03-23T06:51:00;11.20;99.90
7445;DHT22;3764;48.126;11.594;2024-03-23T06:53:29;11.30;99.90
7445;DHT22;3764;48.126;11.594;2024-03-23T06:55:55;11.30;99.90
7445;DHT22;3764;48.126;11.594;2024-03-23T06:58:25;11.40;99.90
7445;DHT22;3764;48.126;11.594;2024-03-23T07:00:51;11.50;99.90
7445;DHT22;3764;48.126;11.594;2024-03-23T07:03:19;11.50;99.90
7445;DHT22;3764;48.126;11.594;2024-03-23T07:05:45;11.60;99.90
7445;DHT22;3764;48.126;11.594;2024-03-23T07:08:13;11.70;99.90
7445;DHT22;3764;48.126;11.594;2024-03-23T07:10:44;11.80;99.90
7445;DHT22;3764;48.126;11.594;2024-03-23T07:13:12;11.90;99.90
7445;DHT22;3764;48.126;11.594;2024-03-23T07:15:40;12.00;99.90
7445;DHT22;3764;48.126;11.594;2024-03-23T07:18:07;12.10;99.90
7445;DHT22;3764;48.126;11.594;2024-03-23T07:20:34;12.20;99.90
7445;DHT22;3764;48.126;11.594;2024-03-23T07:23:01;12.20;99.90
7445;DHT22;3764;48.126;11.594;2024-03-23T07:25:27;12.30;99.90
7445;DHT22;3764;48.126;11.594;2024-03-23T07:27:55;12.40;99.90
7445;DHT22;3764;48.126;11.594;2024-03-23T07:30:21;12.50;99.90
7445;DHT22;3764;48.126;11.594;2024-03-23T07:32:50;12.60;99.90
7445;DHT22;3764;48.126;11.594;2024-03-23T07:35:16;12.60;99.90
7445;DHT22;3764;48.126;11.594;2024-03-23T07:37:44;12.70;99.90
7445;DHT22;3764;48.126;11.594;2024-03-23T07:40:11;12.80;99.90
7445;DHT22;3764;48.126;11.594;2024-03-23T07:42:39;12.90;99.90
7445;DHT22;3764;48.126;11.594;2024-03-23T07:45:06;13.00;99.90
7445;DHT22;3764;48.126;11.594;2024-03-23T07:47:35;13.10;99.90
7445;DHT22;3764;48.126;11.594;2024-03-23T07:50:03;13.20;99.90
7445;DHT22;3764;48.126;11.594;2024-03-23T07:52:30;13.20;99.90
7445;DHT22;3764;48.126;11.594;2024-03-23T07:54:57;13.30;99.90
7445;DHT22;3764;48.126;11.594;2024-03-23T07:57:24;13.20;99.90
7445;DHT22;3764;48.126;11.594;2024-03-23T07:59:51;13.10;99.90
7445;DHT22;3764;48.126;11.594;2024-03-23T08:02:18;12.90;99.90
7445;DHT22;3764;48.126;11.594;2024-03-23T08:04:44;12.80;99.90
7445;DHT22;3764;48.126;11.594;2024-03-23T08:07:13;12.60;99.90
7445;DHT22;3764;48.126;11.594;2024-03-23T08:09:39;12.40;99.90
7445;DHT22;3764;48.126;11.594;2024-03-23T08:12:07;12.20;99.90
7445;DHT22;3764;48.126;11.594;2024-03-23T08:14:34;12.10;99.90
7445;DHT22;3764;48.126;11.594;2024-03-23T08:17:01;11.90;99.90
7445;DHT22;3764;48.126;11.594;2024-03-23T08:19:27;11.80;99.90
7445;DHT22;3764;48.126;11.594;2024-03-23T08:21:55;11.70;99.90
7445;DHT22;3764;48.126;11.594;2024-03-23T08:24:23;11.70;99.90
7445;DHT22;3764;48.126;11.594;2024-03-23T08:26:50;11.60;99.90
7445;DHT22;3764;48.126;11.594;2024-03-23T08:29:16;11.60;99.90
7445;DHT22;3764;48.126;11.594;2024-03-23T08:31:44;11.40;99.90
7445;DHT22;3764;48.126;11.594;2024-03-23T08:34:10;11.30;99.90
7445;DHT22;3764;48.126;11.594;2024-03-23T08:36:37;11.20;99.90
7445;DHT22;3764;48.126;11.594;2024-03-23T08:39:04;11.20;99.90
7445;DHT22;3764;48.126;11.594;2024-03-23T08:41:33;11.00;99.90
7445;DHT22;3764;48.126;11.594;2024-03-23T08:44:00;10.90;99.90
7445;DHT22;3764;48.126;11.594;2024-03-23T08:46:27;10.70;99.90
7445;DHT22;3764;48.126;11.594;2024-03-23T08:48:54;10.60;99.90
7445;DHT22;3764;48.126;11.594;2024-03-23T08:51:21;10.50;99.90
7445;DHT22;3764;48.126;11.594;2024-03-23T08:53:47;10.40;99.90
7445;DHT22;3764;48.126;11.594;2024-03-23T08:56:15;10.30;99.90
7445;DHT22;3764;48.126;11.594;2024-03-23T08:58:43;10.30;99.90
7445;DHT22;3764;48.126;11.594;2024-03-23T09:01:11;10.20;99.90
7445;DHT22;3764;48.126;11.594;2024-03-23T09:03:42;10.20;99.90
7445;DHT22;3764;48.126;11.594;2024-03-23T09:06:09;10.10;99.90
7445;DHT22;3764;48.126;11.594;2024-03-23T09:08:36;10.10;99.90
7445;DHT22;3764;48.126;11.594;2024-03-23T09:11:05;10.10;99.90
7445;DHT22;3764;48.126;11.594;2024-03-23T09:13:32;10.00;99.90
7445;DHT22;3764;48.126;11.594;2024-03-23T09:16:02;10.00;99.90
7445;DHT22;3764;48.126;11.594;2024-03-23T09:18:32;10.00;99.90
7445;DHT22;3764;48.126;11.594;2024-03-23T09:21:01;10.00;99.90
7445;DHT22;3764;48.126;11.594;2024-03-23T09:23:27;9.90;99.90
7445;DHT22;3764;48.126;11.594;2024-03-23T09:25:55;10.00;99.90
7445;DHT22;3764;48.126;11.594;2024-03-23T09:28:21;9.90;99.90
7445;DHT22;3764;48.126;11.594;2024-03-23T09:30:49;10.00;99.90
7445;DHT22;3764;48.126;11.594;2024-03-23T09:33:16;10.00;99.90
7445;DHT22;3764;48.126;11.594;2024-03-23T09:35:44;9.90;99.90
7445;DHT22;3764;48.126;11.594;2024-03-23T09:38:11;9.90;99.90
7445;DHT22;3764;48.126;11.594;2024-03-23T09:40:40;9.80;99.90
7445;DHT22;3764;48.126;11.594;2024-03-23T09:43:08;9.80;99.90
7445;DHT22;3764;48.126;11.594;2024-03-23T09:45:39;9.70;99.90
7445;DHT22;3764;48.126;11.594;2024-03-23T09:48:07;9.70;99.90
7445;DHT22;3764;48.126;11.594;2024-03-23T09:50:38;9.60;99.90
7445;DHT22;3764;48.126;11.594;2024-03-23T09:53:05;9.60;99.90
7445;DHT22;3764;48.126;11.594;2024-03-23T09:55:33;9.50;99.90
7445;DHT22;3764;48.126;11.594;2024-03-23T09:58:01;9.40;99.90
7445;DHT22;3764;48.126;11.594;2024-03-23T10:00:28;9.40;99.90
7445;DHT22;3764;48.126;11.594;2024-03-23T10:02:55;9.30;99.90
7445;DHT22;3764;48.126;11.594;2024-03-23T10:05:24;9.30;99.90
7445;DHT22;3764;48.126;11.594;2024-03-23T10:07:52;9.30;99.90
7445;DHT22;3764;48.126;11.594;2024-03-23T10:10:19;9.30;99.90
7445;DHT22;3764;48.126;11.594;2024-03-23T10:12:47;9.20;99.90
7445;DHT22;3764;48.126;11.594;2024-03-23T10:15:19;9.20;99.90
7445;DHT22;3764;48.126;11.594;2024-03-23T10:17:45;9.20;99.90
7445;DHT22;3764;48.126;11.594;2024-03-23T10:20:13;9.10;99.90
7445;DHT22;3764;48.126;11.594;2024-03-23T10:22:45;9.00;99.90
7445;DHT22;3764;48.126;11.594;2024-03-23T10:25:14;9.00;99.90
7445;DHT22;3764;48.126;11.594;2024-03-23T10:27:41;9.00;99.90
7445;DHT22;3764;48.126;11.594;2024-03-23T10:30:10;9.00;99.90
7445;DHT22;3764;48.126;11.594;2024-03-23T10:32:37;8.90;99.90
7445;DHT22;3764;48.126;11.594;2024-03-23T10:35:14;8.90;99.90
7445;DHT22;3764;48.126;11.594;2024-03-23T10:37:41;8.90;99.90
7445;DHT22;3764;48.126;11.594;2024-03-23T10:40:11;8.90;99.90
7445;DHT22;3764;48.126;11.594;2024-03-23T10:42:40;8.90;99.90
7445;DHT22;3764;48.126;11.594;2024-03-23T10:45:08;8.90;99.90
7445;DHT22;3764;48.126;11.594;2024-03-23T10:47:36;8.90;99.90
7445;DHT22;3764;48.126;11.594;2024-03-23T10:50:04;8.90;99.90
7445;DHT22;3764;48.126;11.594;2024-03-23T10:52:31;8.80;99.90
7445;DHT22;3764;48.126;11.594;2024-03-23T10:55:00;8.70;99.90
7445;DHT22;3764;48.126;11.594;2024-03-23T10:57:30;8.60;99.90
7445;DHT22;3764;48.126;11.594;2024-03-23T11:00:02;8.50;99.90
7445;DHT22;3764;48.126;11.594;2024-03-23T11:02:28;8.40;99.90
7445;DHT22;3764;48.126;11.594;2024-03-23T11:04:56;8.40;99.90
7445;DHT22;3764;48.126;11.594;2024-03-23T11:07:29;8.30;99.90
7445;DHT22;3764;48.126;11.594;2024-03-23T11:09:58;8.20;99.90
7445;DHT22;3764;48.126;11.594;2024-03-23T11:12:30;8.30;99.90
7445;DHT22;3764;48.126;11.594;2024-03-23T11:15:05;8.30;99.90
7445;DHT22;3764;48.126;11.594;2024-03-23T11:17:32;8.30;99.90
7445;DHT22;3764;48.126;11.594;2024-03-23T11:20:00;8.30;99.90
7445;DHT22;3764;48.126;11.594;2024-03-23T11:22:41;8.40;99.90
7445;DHT22;3764;48.126;11.594;2024-03-23T11:25:16;8.40;99.90
7445;DHT22;3764;48.126;11.594;2024-03-23T11:27:44;8.40;99.90
7445;DHT22;3764;48.126;11.594;2024-03-23T11:30:16;8.50;99.90
7445;DHT22;3764;48.126;11.594;2024-03-23T11:32:44;8.50;99.90
7445;DHT22;3764;48.126;11.594;2024-03-23T11:35:25;8.50;99.90
7445;DHT22;3764;48.126;11.594;2024-03-23T11:38:07;8.50;99.90
7445;DHT22;3764;48.126;11.594;2024-03-23T11:40:36;8.60;99.90
7445;DHT22;3764;48.126;11.594;2024-03-23T11:43:04;8.60;99.90
7445;DHT22;3764;48.126;11.594;2024-03-23T11:45:37;8.60;99.90
7445;DHT22;3764;48.126;11.594;2024-03-23T11:48:06;8.60;99.90
7445;DHT22;3764;48.126;11.594;2024-03-23T11:50:35;8.70;99.90
7445;DHT22;3764;48.126;11.594;2024-03-23T11:53:09;8.70;99.90
7445;DHT22;3764;48.126;11.594;2024-03-23T11:55:44;8.70;99.90
7445;DHT22;3764;48.126;11.594;2024-03-23T11:58:10;8.80;99.90
7445;DHT22;3764;48.126;11.594;2024-03-23T12:00:39;8.70;99.90
7445;DHT22;3764;48.126;11.594;2024-03-23T12:03:06;8.80;99.90
7445;DHT22;3764;48.126;11.594;2024-03-23T12:05:34;8.80;99.90
7445;DHT22;3764;48.126;11.594;2024-03-23T12:08:17;8.90;99.90
7445;DHT22;3764;48.126;11.594;2024-03-23T12:10:49;8.90;99.90
7445;DHT22;3764;48.126;11.594;2024-03-23T12:13:20;9.00;99.90
7445;DHT22;3764;48.126;11.594;2024-03-23T12:15:50;9.00;99.90
7445;DHT22;3764;48.126;11.594;2024-03-23T12:18:17;9.00;99.90
7445;DHT22;3764;48.126;11.594;2024-03-23T12:20:44;9.00;99.90
7445;DHT22;3764;48.126;11.594;2024-03-23T12:23:12;8.90;99.90
7445;DHT22;3764;48.126;11.594;2024-03-23T12:25:40;8.80;99.90
7445;DHT22;3764;48.126;11.594;2024-03-23T12:28:07;8.80;99.90
7445;DHT22;3764;48.126;11.594;2024-03-23T12:30:35;8.70;99.90
7445;DHT22;3764;48.126;11.594;2024-03-23T12:33:04;8.70;99.90
7445;DHT22;3764;48.126;11.594;2024-03-23T12:35:32;8.70;99.90
7445;DHT22;3764;48.126;11.594;2024-03-23T12:37:58;8.60;99.90
7445;DHT22;3764;48.126;11.594;2024-03-23T12:40:26;8.60;99.90
7445;DHT22;3764;48.126;11.594;2024-03-23T12:42:52;8.60;99.90
7445;DHT22;3764;48.126;11.594;2024-03-23T12:45:20;8.60;99.90
7445;DHT22;3764;48.126;11.594;2024-03-23T12:47:46;8.60;99.90
7445;DHT22;3764;48.126;11.594;2024-03-23T12:50:15;8.70;99.90
7445;DHT22;3764;48.126;11.594;2024-03-23T12:52:42;8.70;99.90
7445;DHT22;3764;48.126;11.594;2024-03-23T12:55:10;8.80;99.90
7445;DHT22;3764;48.126;11.594;2024-03-23T12:57:36;8.80;99.90
7445;DHT22;3764;48.126;11.594;2024-03-23T13:00:05;8.70;99.90
7445;DHT22;3764;48.126;11.594;2024-03-23T13:02:32;8.80;99.90
7445;DHT22;3764;48.126;11.594;2024-03-23T13:05:01;8.80;99.90
7445;DHT22;3764;48.126;11.594;2024-03-23T13:07:28;8.90;99.90
7445;DHT22;3764;48.126;11.594;2024-03-23T13:09:56;8.90;99.90
7445;DHT22;3764;48.126;11.594;2024-03-23T13:12:22;8.90;99.90
7445;DHT22;3764;48.126;11.594;2024-03-23T13:14:50;9.00;99.90
7445;DHT22;3764;48.126;11.594;2024-03-23T13:17:16;9.00;99.90
7445;DHT22;3764;48.126;11.594;2024-03-23T13:19:44;9.10;99.90
7445;DHT22;3764;48.126;11.594;2024-03-23T13:22:10;9.00;99.90
7445;DHT22;3764;48.126;11.594;2024-03-23T13:24:39;9.00;99.90
7445;DHT22;3764;48.126;11.594;2024-03-23T13:27:06;9.00;99.90
7445;DHT22;3764;48.126;11.594;2024-03-23T13:29:34;9.00;99.90
7445;DHT22;3764;48.126;11.594;2024-03-23T13:32:00;9.00;99.90
7445;DHT22;3764;48.126;11.594;2024-03-23T13:34:28;9.00;99.90
7445;DHT22;3764;48.126;11.594;2024-03-23T13:36:55;8.90;99.90
7445;DHT22;3764;48.126;11.594;2024-03-23T13:39:25;8.90;99.90
7445;DHT22;3764;48.126;11.594;2024-03-23T13:41:54;8.90;99.90
7445;DHT22;3764;48.126;11.594;2024-03-23T13:44:22;9.00;99.90
7445;DHT22;3764;48.126;11.594;2024-03-23T13:46:50;9.00;99.90
7445;DHT22;3764;48.126;11.594;2024-03-23T13:49:25;9.00;99.90
7445;DHT22;3764;48.126;11.594;2024-03-23T13:51:53;9.00;99.90
7445;DHT22;3764;48.126;11.594;2024-03-23T13:54:20;9.00;99.90
7445;DHT22;3764;48.126;11.594;2024-03-23T13:56:48;9.00;99.90
7445;DHT22;3764;48.126;11.594;2024-03-23T13:59:16;9.00;99.90
7445;DHT22;3764;48.126;11.594;2024-03-23T14:01:44;9.00;99.90
7445;DHT22;3764;48.126;11.594;2024-03-23T14:04:11;8.90;99.90
7445;DHT22;3764;48.126;11.594;2024-03-23T14:06:39;8.70;99.90
7445;DHT22;3764;48.126;11.594;2024-03-23T14:09:05;8.40;99.90
7445;DHT22;3764;48.126;11.594;2024-03-23T14:11:34;8.00;99.90
7445;DHT22;3764;48.126;11.594;2024-03-23T14:14:02;7.90;99.90
7445;DHT22;3764;48.126;11.594;2024-03-23T14:16:31;7.90;99.90
7445;DHT22;3764;48.126;11.594;2024-03-23T14:18:58;7.80;99.90
7445;DHT22;3764;48.126;11.594;2024-03-23T14:21:25;7.80;99.90
7445;DHT22;3764;48.126;11.594;2024-03-23T14:23:52;7.80;99.90
7445;DHT22;3764;48.126;11.594;2024-03-23T14:26:21;7.80;99.90
7445;DHT22;3764;48.126;11.594;2024-03-23T14:28:47;7.80;99.90
7445;DHT22;3764;48.126;11.594;2024-03-23T14:31:15;7.80;99.90
7445;DHT22;3764;48.126;11.594;2024-03-23T14:33:43;7.80;99.90
7445;DHT22;3764;48.126;11.594;2024-03-23T14:36:12;7.80;99.90
7445;DHT22;3764;48.126;11.594;2024-03-23T14:38:38;7.80;99.90
7445;DHT22;3764;48.126;11.594;2024-03-23T14:41:06;7.80;99.90
7445;DHT22;3764;48.126;11.594;2024-03-23T14:43:32;7.80;99.90
7445;DHT22;3764;48.126;11.594;2024-03-23T14:46:10;7.80;99.90
7445;DHT22;3764;48.126;11.594;2024-03-23T14:48:37;7.70;99.90
7445;DHT22;3764;48.126;11.594;2024-03-23T14:51:06;7.70;99.90
7445;DHT22;3764;48.126;11.594;2024-03-23T14:53:34;7.70;99.90
7445;DHT22;3764;48.126;11.594;2024-03-23T14:56:04;7.70;99.90
7445;DHT22;3764;48.126;11.594;2024-03-23T14:58:30;7.70;99.90
7445;DHT22;3764;48.126;11.594;2024-03-23T15:01:01;7.70;99.90
7445;DHT22;3764;48.126;11.594;2024-03-23T15:03:28;7.60;99.90
7445;DHT22;3764;48.126;11.594;2024-03-23T15:05:56;7.60;99.90
7445;DHT22;3764;48.126;11.594;2024-03-23T15:08:24;7.60;99.90
7445;DHT22;3764;48.126;11.594;2024-03-23T15:10:52;7.50;99.90
7445;DHT22;3764;48.126;11.594;2024-03-23T15:13:18;7.40;99.90
7445;DHT22;3764;48.126;11.594;2024-03-23T15:15:48;7.30;99.90
7445;DHT22;3764;48.126;11.594;2024-03-23T15:18:15;7.10;99.90
7445;DHT22;3764;48.126;11.594;2024-03-23T15:20:52;7.00;99.90
7445;DHT22;3764;48.126;11.594;2024-03-23T15:23:18;6.90;99.90
7445;DHT22;3764;48.126;11.594;2024-03-23T15:25:54;6.80;99.90
7445;DHT22;3764;48.126;11.594;2024-03-23T15:28:23;6.80;99.90
7445;DHT22;3764;48.126;11.594;2024-03-23T15:30:52;6.80;99.90
7445;DHT22;3764;48.126;11.594;2024-03-23T15:33:19;6.80;99.90
7445;DHT22;3764;48.126;11.594;2024-03-23T15:35:46;6.70;99.90
7445;DHT22;3764;48.126;11.594;2024-03-23T15:38:13;6.60;99.90
7445;DHT22;3764;48.126;11.594;2024-03-23T15:40:40;6.50;99.90
7445;DHT22;3764;48.126;11.594;2024-03-23T15:43:08;6.50;99.90
7445;DHT22;3764;48.126;11.594;2024-03-23T15:45:35;6.50;99.90
7445;DHT22;3764;48.126;11.594;2024-03-23T15:48:01;6.50;99.90
7445;DHT22;3764;48.126;11.594;2024-03-23T15:50:29;6.40;99.90
7445;DHT22;3764;48.126;11.594;2024-03-23T15:52:55;6.30;99.90
7445;DHT22;3764;48.126;11.594;2024-03-23T15:55:23;6.20;99.90
7445;DHT22;3764;48.126;11.594;2024-03-23T15:57:49;6.20;99.90
7445;DHT22;3764;48.126;11.594;2024-03-23T16:00:19;6.10;99.90
7445;DHT22;3764;48.126;11.594;2024-03-23T16:02:45;6.20;99.90
7445;DHT22;3764;48.126;11.594;2024-03-23T16:05:14;6.20;99.90
7445;DHT22;3764;48.126;11.594;2024-03-23T16:07:40;6.30;99.90
7445;DHT22;3764;48.126;11.594;2024-03-23T16:10:08;6.30;99.90
7445;DHT22;3764;48.126;11.594;2024-03-23T16:12:35;6.30;99.90
7445;DHT22;3764;48.126;11.594;2024-03-23T16:15:04;6.30;99.90
7445;DHT22;3764;48.126;11.594;2024-03-23T16:17:33;6.40;99.90
7445;DHT22;3764;48.126;11.594;2024-03-23T16:20:02;6.50;99.90
7445;DHT22;3764;48.126;11.594;2024-03-23T16:22:29;6.50;99.90
7445;DHT22;3764;48.126;11.594;2024-03-23T16:24:56;6.40;99.90
7445;DHT22;3764;48.126;11.594;2024-03-23T16:27:22;6.40;99.90
7445;DHT22;3764;48.126;11.594;2024-03-23T16:29:50;6.40;99.90
7445;DHT22;3764;48.126;11.594;2024-03-23T16:32:16;6.40;99.90
7445;DHT22;3764;48.126;11.594;2024-03-23T16:34:46;6.40;99.90
7445;DHT22;3764;48.126;11.594;2024-03-23T16:37:12;6.40;99.90
7445;DHT22;3764;48.126;11.594;2024-03-23T16:39:40;6.50;99.90
7445;DHT22;3764;48.126;11.594;2024-03-23T16:42:06;6.50;99.90
7445;DHT22;3764;48.126;11.594;2024-03-23T16:44:33;6.60;99.90
7445;DHT22;3764;48.126;11.594;2024-03-23T16:47:00;6.70;99.90
7445;DHT22;3764;48.126;11.594;2024-03-23T16:49:32;6.80;99.90